Ellsworth, ME

8:31 AM EDT on September 25, 2016 (GMT -0400)
Hancock County-Bar Harbor

Weather History for KBHB - February, 2014

Change the Weather History Date:

Wednesday, February 19, 2014

  Actual Average Record
Temperature  
Mean Temperature 26 °F -  
Max Temperature 33 °F 33 °F 53 °F (1949)
Min Temperature 19 °F 17 °F -3 °F (1967)
Degree Days  
Heating Degree Days 39    
Moisture  
Dew Point 28 °F    
Average Humidity 94    
Maximum Humidity 100    
Minimum Humidity 69    
Precipitation  
Precipitation 0.27 in - - ()
Sea Level Pressure  
Sea Level Pressure 29.92 in    
Wind  
Wind Speed 7 mph (NE)    
Max Wind Speed 15 mph    
Max Gust Speed 22 mph    
Visibility 8 miles    
Events      
Averages and records for this station are not official NWS values.
T = Trace of Precipitation, MM = Missing Value Source: NWS Daily Summary

Daily Weather History Graph

Daily Weather History Graph

Search for Another Location

Airport or City:

Trip Planner

Search our weather history database for the weather conditions in past years. The results will help you decide how hot, cold, wet, or windy it might be!

Date:

Astronomy

Feb. 19, 2014 Rise Set
Actual Time 6:27 AM EST 5:07 PM EST
Civil Twilight 5:57 AM EST 5:37 PM EST
Nautical Twilight 5:23 AM EST 6:11 PM EST
Astronomical Twilight 4:50 AM EST 6:45 PM EST
Moon 10:10 PM EST (2/19) 8:19 AM EST (2/19)
Length of Visible Light 11h 39m
Length of Day
10h 40m
Waning Gibbous, 80% of the Moon is Illuminated
Feb 19
Waning Gibbous
Feb 22
Last Quarter
Mar 1
New
Mar 8
First Quarter
Mar 16
Full

Hourly Weather History & Observations

Time (EST) Temp. Windchill Dew Point Humidity Pressure Visibility Wind Dir Wind Speed Gust Speed Precip Events Conditions
12:15 AM 26.6 °F 15.2 °F 26.6 °F 100% 29.87 in 1.2 mi North 13.8 mph 18.4 mph N/A   Overcast
12:35 AM 26.6 °F 14.7 °F 26.6 °F 100% 29.86 in 1.2 mi North 15.0 mph 20.7 mph N/A   Overcast
12:55 AM 26.6 °F 15.7 °F 24.8 °F 93% 29.87 in 1.8 mi North 12.7 mph 19.6 mph N/A   Overcast
1:15 AM 26.6 °F 15.7 °F 24.8 °F 93% 29.89 in 1.8 mi North 12.7 mph 21.9 mph N/A   Overcast
1:35 AM 26.6 °F 15.7 °F 26.6 °F 100% 29.89 in 3.0 mi North 12.7 mph 19.6 mph N/A   Overcast
1:55 AM 26.6 °F 17.5 °F 26.6 °F 100% 29.90 in 4.0 mi NNW 9.2 mph 20.7 mph N/A   Overcast
2:15 AM 26.6 °F 16.2 °F 26.6 °F 100% 29.91 in 10.0 mi NNW 11.5 mph 17.3 mph N/A   Overcast
2:35 AM 26.6 °F 16.8 °F 24.8 °F 93% 29.91 in 10.0 mi NNW 10.4 mph - N/A   Overcast
2:55 AM 24.8 °F 15.3 °F 23.0 °F 93% 29.92 in 10.0 mi North 9.2 mph 16.1 mph N/A   Overcast
3:15 AM 24.8 °F 16.9 °F 24.8 °F 100% 29.91 in 10.0 mi North 6.9 mph - N/A   Overcast
3:35 AM 24.8 °F 20.5 °F 23.0 °F 93% 29.93 in 10.0 mi North 3.5 mph - N/A   Mostly Cloudy
3:55 AM 26.6 °F 21.2 °F 26.6 °F 100% 29.96 in 10.0 mi NW 4.6 mph - N/A   Overcast
4:15 AM 26.6 °F 21.2 °F 26.6 °F 100% 29.99 in 10.0 mi NW 4.6 mph - N/A   Overcast
4:35 AM 26.6 °F 21.2 °F 26.6 °F 100% 29.99 in 10.0 mi NNW 4.6 mph - N/A   Overcast
4:55 AM 24.8 °F 19.1 °F 24.8 °F 100% 29.97 in 10.0 mi NNW 4.6 mph - N/A   Scattered Clouds
5:15 AM 24.8 °F 16.9 °F 23.0 °F 93% 29.98 in 10.0 mi NNE 6.9 mph - N/A   Clear
5:35 AM 23.0 °F 15.8 °F 21.2 °F 93% 29.99 in 10.0 mi NNW 5.8 mph - N/A   Clear
5:55 AM 21.2 °F - 19.4 °F 93% 30.02 in 10.0 mi Calm Calm - N/A   Clear
6:15 AM 21.2 °F - 21.2 °F 100% 30.03 in 10.0 mi Calm Calm - N/A   Clear
6:35 AM 19.4 °F - 19.4 °F 100% 30.03 in 10.0 mi Calm Calm - N/A   Clear
6:55 AM 19.4 °F 14.3 °F 17.6 °F 93% 30.04 in 10.0 mi WNW 3.5 mph - N/A   Clear
7:15 AM 23.0 °F - 21.2 °F 93% 30.05 in 10.0 mi Calm Calm - N/A   Clear
7:35 AM 24.8 °F 20.5 °F 23.0 °F 93% 30.03 in 10.0 mi NNE 3.5 mph - N/A   Clear
7:55 AM 23.0 °F 17.0 °F 21.2 °F 93% 30.01 in 10.0 mi NNE 4.6 mph - N/A   Clear
8:15 AM 24.8 °F - 23.0 °F 93% 30.02 in 10.0 mi Calm Calm - N/A   Clear
8:35 AM 26.6 °F 22.6 °F 24.8 °F 93% 30.04 in 10.0 mi WNW 3.5 mph - N/A   Clear
8:55 AM 26.6 °F 22.6 °F 23.0 °F 86% 30.05 in 1.5 mi SW 3.5 mph - N/A   Clear
9:15 AM 28.4 °F 23.3 °F 24.8 °F 86% 30.05 in 10.0 mi SSW 4.6 mph - N/A   Clear
9:35 AM 30.2 °F 26.7 °F 24.8 °F 80% 30.04 in 10.0 mi SSE 3.5 mph - N/A   Clear
9:55 AM 30.2 °F 26.7 °F 24.8 °F 80% 30.05 in 10.0 mi South 3.5 mph - N/A   Clear
10:15 AM 30.2 °F - 24.8 °F 80% 30.04 in 10.0 mi Calm Calm - N/A   Clear
10:35 AM 32.0 °F 28.7 °F 23.0 °F 69% 30.04 in 9.0 mi South 3.5 mph - 0.01 in   Clear
10:55 AM 33.8 °F - 24.8 °F 70% 30.03 in 10.0 mi Calm Calm - 0.03 in   Clear
11:15 AM 28.4 °F - 26.6 °F 93% 30.02 in 10.0 mi Calm Calm - 0.02 in   Clear
11:35 AM 30.2 °F - 26.6 °F 86% 30.03 in 10.0 mi Calm Calm - 0.02 in   Clear
11:55 AM 30.2 °F - 26.6 °F 86% 30.02 in 10.0 mi Calm Calm - 0.02 in   Clear
12:15 PM 30.2 °F 24.3 °F 28.4 °F 93% 30.01 in 10.0 mi SSE 5.8 mph - N/A   Clear
12:35 PM 30.2 °F 26.7 °F 28.4 °F 93% 29.99 in 10.0 mi South 3.5 mph - N/A   Clear
12:55 PM 30.2 °F 26.7 °F 28.4 °F 93% 29.97 in 10.0 mi SSE 3.5 mph - N/A   Clear
1:15 PM 30.2 °F - 28.4 °F 93% 29.95 in 10.0 mi Calm Calm - N/A   Clear
1:35 PM 32.0 °F - 30.2 °F 93% 29.95 in 10.0 mi Calm Calm - N/A   Clear
1:55 PM 32.0 °F 26.4 °F 28.4 °F 87% 29.97 in 10.0 mi WSW 5.8 mph - N/A   Clear
2:15 PM 32.0 °F 25.6 °F 28.4 °F 87% 29.95 in 10.0 mi South 6.9 mph - N/A   Clear
2:35 PM 32.0 °F 24.2 °F 30.2 °F 93% 29.96 in 10.0 mi SSW 9.2 mph - N/A   Clear
2:55 PM 32.0 °F 27.5 °F 30.2 °F 93% 29.95 in 10.0 mi SSE 4.6 mph - N/A   Clear
3:15 PM 32.0 °F 28.7 °F 30.2 °F 93% 29.93 in 10.0 mi SSE 3.5 mph - N/A   Mostly Cloudy
3:35 PM 32.0 °F 28.7 °F 30.2 °F 93% 29.90 in 10.0 mi East 3.5 mph - N/A   Overcast
3:55 PM 32.0 °F - 30.2 °F 93% 29.92 in 10.0 mi Calm Calm - N/A   Overcast
4:15 PM 32.0 °F - 30.2 °F 93% 29.92 in 10.0 mi Calm Calm - N/A   Overcast
4:35 PM 32.0 °F - 30.2 °F 93% 29.93 in 10.0 mi Calm Calm - N/A   Overcast
4:55 PM 32.0 °F 27.5 °F 30.2 °F 93% 29.91 in 10.0 mi ENE 4.6 mph - N/A   Overcast
5:15 PM 32.0 °F 28.7 °F 30.2 °F 93% 29.92 in 10.0 mi ESE 3.5 mph - N/A   Overcast
5:35 PM 33.8 °F 30.8 °F 30.2 °F 87% 29.90 in 5.0 mi ESE 3.5 mph - N/A   Overcast
5:55 PM 33.8 °F 30.8 °F 32.0 °F 93% 29.90 in 1.0 mi ESE 3.5 mph - 0.01 in   Overcast
6:15 PM 33.8 °F 30.8 °F 32.0 °F 93% 29.88 in 1.2 mi ENE 3.5 mph - 0.01 in   Overcast
6:35 PM 33.8 °F - 33.8 °F 100% 29.86 in 1.2 mi Calm Calm - 0.02 in   Overcast
6:55 PM 33.8 °F 29.6 °F 33.8 °F 100% 29.84 in 1.2 mi East 4.6 mph - 0.04 in   Overcast
7:15 PM 33.8 °F 27.7 °F 33.8 °F 100% 29.82 in 1.2 mi East 6.9 mph - 0.02 in   Overcast
7:35 PM 33.8 °F 28.6 °F 33.8 °F 100% 29.81 in 1.2 mi East 5.8 mph - 0.03 in   Overcast
7:55 PM 33.8 °F 30.8 °F 33.8 °F 100% 29.80 in 1.2 mi East 3.5 mph - 0.04 in   Overcast
8:15 PM 33.8 °F 30.8 °F 33.8 °F 100% 29.80 in 1.0 mi ENE 3.5 mph - 0.02 in   Overcast
8:35 PM 33.8 °F 29.6 °F 33.8 °F 100% 29.79 in 1.8 mi ENE 4.6 mph - 0.04 in   Overcast
8:55 PM 33.8 °F 29.6 °F 33.8 °F 100% 29.77 in 2.0 mi ENE 4.6 mph - 0.06 in   Overcast
9:15 PM 33.8 °F 28.6 °F 33.8 °F 100% 29.77 in 3.0 mi ENE 5.8 mph - 0.02 in   Overcast
9:35 PM 33.8 °F 27.0 °F 33.8 °F 100% 29.75 in 2.5 mi ENE 8.1 mph - 0.03 in   Overcast
9:55 PM 33.8 °F 27.7 °F 33.8 °F 100% 29.73 in 6.0 mi ENE 6.9 mph - 0.04 in   Overcast
10:15 PM 33.8 °F 26.4 °F 33.8 °F 100% 29.72 in 8.0 mi NE 9.2 mph - 0.01 in   Overcast
10:35 PM 33.8 °F 26.4 °F 33.8 °F 100% 29.71 in 10.0 mi NNE 9.2 mph - 0.02 in   Overcast
10:55 PM 33.8 °F 28.6 °F 33.8 °F 100% 29.70 in 10.0 mi NNE 5.8 mph - 0.03 in   Overcast
11:15 PM 33.8 °F 27.7 °F 33.8 °F 100% 29.70 in 10.0 mi NNE 6.9 mph - N/A   Overcast
11:35 PM 33.8 °F 28.6 °F 33.8 °F 100% 29.70 in 10.0 mi NNE 5.8 mph - N/A   Overcast
11:55 PM 33.8 °F 29.6 °F 33.8 °F 100% 29.70 in 10.0 mi North 4.6 mph - N/A   Overcast